Harare, Zimbabwe
Current Conditions -  °F | °C
As of 1:00 PM on Monday 20 Oct 2014 (Local Time) from FVHA Reporting Station
Clear Clear  
Wind Chill: 28°   Ceiling: Unl
Heat Index: 28°   Visibility: 6mi
Dew Point:   Wind: 7mph
Humidity: 21%   Direction: 100°E
Pressure: 30.18"   Gusts: NA
Location:  17.82°S, 31.05°E
Report Text: FVHA 201100Z 10006KT 010V170 CAVOK 28/04 Q1022 NOSIG RMK QFE 854.1
Loading
Personal Weather Stations






























Interactive Weather Map New forecast layout! Learn more

10-Day Weather Forecast

Advertisements
Track Severe Weather on mobile